sensor_id;sensor_type;location;lat;lon;timestamp;temperature;humidity
35027;DHT22;60696;51.426;6.934;2023-03-24T00:02:05;11.40;99.90
35027;DHT22;60696;51.426;6.934;2023-03-24T00:04:32;11.40;99.90
35027;DHT22;60696;51.426;6.934;2023-03-24T00:06:58;11.40;99.90
35027;DHT22;60696;51.426;6.934;2023-03-24T00:09:26;11.40;99.90
35027;DHT22;60696;51.426;6.934;2023-03-24T00:11:54;11.50;99.90
35027;DHT22;60696;51.426;6.934;2023-03-24T00:14:20;11.40;99.90
35027;DHT22;60696;51.426;6.934;2023-03-24T00:16:45;11.40;99.90
35027;DHT22;60696;51.426;6.934;2023-03-24T00:19:12;11.40;99.90
35027;DHT22;60696;51.426;6.934;2023-03-24T00:21:40;11.40;99.90
35027;DHT22;60696;51.426;6.934;2023-03-24T00:24:06;11.40;99.90
35027;DHT22;60696;51.426;6.934;2023-03-24T00:26:34;11.50;99.90
35027;DHT22;60696;51.426;6.934;2023-03-24T00:29:03;11.50;99.90
35027;DHT22;60696;51.426;6.934;2023-03-24T00:31:29;11.50;99.90
35027;DHT22;60696;51.426;6.934;2023-03-24T00:33:55;11.50;99.90
35027;DHT22;60696;51.426;6.934;2023-03-24T00:36:23;11.50;99.90
35027;DHT22;60696;51.426;6.934;2023-03-24T00:38:50;11.50;99.90
35027;DHT22;60696;51.426;6.934;2023-03-24T00:41:17;11.50;99.90
35027;DHT22;60696;51.426;6.934;2023-03-24T00:43:45;11.50;99.90
35027;DHT22;60696;51.426;6.934;2023-03-24T00:46:13;11.50;99.90
35027;DHT22;60696;51.426;6.934;2023-03-24T00:48:54;11.50;99.90
35027;DHT22;60696;51.426;6.934;2023-03-24T00:51:27;11.50;99.90
35027;DHT22;60696;51.426;6.934;2023-03-24T00:53:53;11.50;99.90
35027;DHT22;60696;51.426;6.934;2023-03-24T00:56:24;11.60;99.90
35027;DHT22;60696;51.426;6.934;2023-03-24T00:58:50;11.60;99.90
35027;DHT22;60696;51.426;6.934;2023-03-24T01:01:15;11.60;99.90
35027;DHT22;60696;51.426;6.934;2023-03-24T01:03:41;11.60;99.90
35027;DHT22;60696;51.426;6.934;2023-03-24T01:06:12;11.60;99.90
35027;DHT22;60696;51.426;6.934;2023-03-24T01:08:38;11.60;99.90
35027;DHT22;60696;51.426;6.934;2023-03-24T01:11:05;11.60;99.90
35027;DHT22;60696;51.426;6.934;2023-03-24T01:13:31;11.70;99.90
35027;DHT22;60696;51.426;6.934;2023-03-24T01:15:58;11.70;99.90
35027;DHT22;60696;51.426;6.934;2023-03-24T01:18:24;11.60;99.90
35027;DHT22;60696;51.426;6.934;2023-03-24T01:20:52;11.60;99.90
35027;DHT22;60696;51.426;6.934;2023-03-24T01:23:23;11.60;99.90
35027;DHT22;60696;51.426;6.934;2023-03-24T01:25:50;11.60;99.90
35027;DHT22;60696;51.426;6.934;2023-03-24T01:28:18;11.60;99.90
35027;DHT22;60696;51.426;6.934;2023-03-24T01:30:53;11.60;99.90
35027;DHT22;60696;51.426;6.934;2023-03-24T01:33:19;11.60;99.90
35027;DHT22;60696;51.426;6.934;2023-03-24T01:35:45;11.70;99.90
35027;DHT22;60696;51.426;6.934;2023-03-24T01:38:12;11.60;99.90
35027;DHT22;60696;51.426;6.934;2023-03-24T01:40:40;11.60;99.90
35027;DHT22;60696;51.426;6.934;2023-03-24T01:43:17;11.60;99.90
35027;DHT22;60696;51.426;6.934;2023-03-24T01:46:12;11.70;99.90
35027;DHT22;60696;51.426;6.934;2023-03-24T01:49:08;11.60;99.90
35027;DHT22;60696;51.426;6.934;2023-03-24T01:51:44;11.70;99.90
35027;DHT22;60696;51.426;6.934;2023-03-24T01:54:37;11.70;99.90
35027;DHT22;60696;51.426;6.934;2023-03-24T01:57:19;11.70;99.90
35027;DHT22;60696;51.426;6.934;2023-03-24T01:59:49;11.60;99.90
35027;DHT22;60696;51.426;6.934;2023-03-24T02:02:16;11.70;99.90
35027;DHT22;60696;51.426;6.934;2023-03-24T02:04:46;11.70;99.90
35027;DHT22;60696;51.426;6.934;2023-03-24T02:07:25;11.70;99.90
35027;DHT22;60696;51.426;6.934;2023-03-24T02:09:54;11.70;99.90
35027;DHT22;60696;51.426;6.934;2023-03-24T02:12:19;11.70;99.90
35027;DHT22;60696;51.426;6.934;2023-03-24T02:14:45;11.70;99.90
35027;DHT22;60696;51.426;6.934;2023-03-24T02:17:24;11.70;99.90
35027;DHT22;60696;51.426;6.934;2023-03-24T02:23:33;11.70;99.90
35027;DHT22;60696;51.426;6.934;2023-03-24T02:26:32;11.70;99.90
35027;DHT22;60696;51.426;6.934;2023-03-24T02:40:36;11.70;99.90
35027;DHT22;60696;51.426;6.934;2023-03-24T02:52:17;11.90;99.90
35027;DHT22;60696;51.426;6.934;2023-03-24T02:55:25;11.90;99.90
35027;DHT22;60696;51.426;6.934;2023-03-24T02:57:54;11.90;99.90
35027;DHT22;60696;51.426;6.934;2023-03-24T03:00:35;12.10;99.90
35027;DHT22;60696;51.426;6.934;2023-03-24T03:03:13;12.20;99.90
35027;DHT22;60696;51.426;6.934;2023-03-24T03:05:46;12.20;99.90
35027;DHT22;60696;51.426;6.934;2023-03-24T03:08:15;12.30;99.90
35027;DHT22;60696;51.426;6.934;2023-03-24T03:10:44;12.30;99.90
35027;DHT22;60696;51.426;6.934;2023-03-24T03:13:30;12.30;99.90
35027;DHT22;60696;51.426;6.934;2023-03-24T03:16:03;12.30;99.90
35027;DHT22;60696;51.426;6.934;2023-03-24T03:18:40;12.30;99.90
35027;DHT22;60696;51.426;6.934;2023-03-24T03:21:12;12.40;99.90
35027;DHT22;60696;51.426;6.934;2023-03-24T03:23:47;12.30;99.90
35027;DHT22;60696;51.426;6.934;2023-03-24T03:26:17;12.40;99.90
35027;DHT22;60696;51.426;6.934;2023-03-24T03:28:49;12.40;99.90
35027;DHT22;60696;51.426;6.934;2023-03-24T03:31:20;12.50;99.90
35027;DHT22;60696;51.426;6.934;2023-03-24T03:34:02;12.50;99.90
35027;DHT22;60696;51.426;6.934;2023-03-24T03:36:33;12.50;99.90
35027;DHT22;60696;51.426;6.934;2023-03-24T03:39:10;12.60;99.90
35027;DHT22;60696;51.426;6.934;2023-03-24T03:41:38;12.60;99.90
35027;DHT22;60696;51.426;6.934;2023-03-24T03:44:05;12.60;99.90
35027;DHT22;60696;51.426;6.934;2023-03-24T03:46:31;12.60;99.90
35027;DHT22;60696;51.426;6.934;2023-03-24T03:48:57;12.60;99.90
35027;DHT22;60696;51.426;6.934;2023-03-24T03:51:22;12.60;99.90
35027;DHT22;60696;51.426;6.934;2023-03-24T03:53:54;12.70;99.90
35027;DHT22;60696;51.426;6.934;2023-03-24T03:56:23;12.70;99.90
35027;DHT22;60696;51.426;6.934;2023-03-24T03:58:50;12.70;99.90
35027;DHT22;60696;51.426;6.934;2023-03-24T04:01:22;12.70;99.90
35027;DHT22;60696;51.426;6.934;2023-03-24T04:03:51;12.70;99.90
35027;DHT22;60696;51.426;6.934;2023-03-24T04:10:36;12.60;99.90
35027;DHT22;60696;51.426;6.934;2023-03-24T04:12:50;12.50;99.90
35027;DHT22;60696;51.426;6.934;2023-03-24T04:15:45;12.50;99.90
35027;DHT22;60696;51.426;6.934;2023-03-24T04:23:57;12.40;99.90
35027;DHT22;60696;51.426;6.934;2023-03-24T04:26:34;12.30;99.90
35027;DHT22;60696;51.426;6.934;2023-03-24T04:29:19;12.30;99.90
35027;DHT22;60696;51.426;6.934;2023-03-24T04:34:29;12.20;99.90
35027;DHT22;60696;51.426;6.934;2023-03-24T04:37:04;12.10;99.90
35027;DHT22;60696;51.426;6.934;2023-03-24T04:39:35;12.10;99.90
35027;DHT22;60696;51.426;6.934;2023-03-24T04:42:06;12.10;99.90
35027;DHT22;60696;51.426;6.934;2023-03-24T04:44:32;12.10;99.90
35027;DHT22;60696;51.426;6.934;2023-03-24T04:46:59;12.00;99.90
35027;DHT22;60696;51.426;6.934;2023-03-24T04:49:26;12.00;99.90
35027;DHT22;60696;51.426;6.934;2023-03-24T04:51:53;12.00;99.90
35027;DHT22;60696;51.426;6.934;2023-03-24T04:54:21;12.00;99.90
35027;DHT22;60696;51.426;6.934;2023-03-24T04:56:51;12.00;99.90
35027;DHT22;60696;51.426;6.934;2023-03-24T04:59:18;12.00;99.90
35027;DHT22;60696;51.426;6.934;2023-03-24T05:01:44;11.90;99.90
35027;DHT22;60696;51.426;6.934;2023-03-24T05:04:17;11.90;99.90
35027;DHT22;60696;51.426;6.934;2023-03-24T05:06:43;11.90;99.90
35027;DHT22;60696;51.426;6.934;2023-03-24T05:09:14;11.90;99.90
35027;DHT22;60696;51.426;6.934;2023-03-24T05:11:40;11.90;99.90
35027;DHT22;60696;51.426;6.934;2023-03-24T05:14:05;12.00;99.90
35027;DHT22;60696;51.426;6.934;2023-03-24T05:16:31;12.00;99.90
35027;DHT22;60696;51.426;6.934;2023-03-24T05:18:57;11.90;99.90
35027;DHT22;60696;51.426;6.934;2023-03-24T05:21:22;11.90;99.90
35027;DHT22;60696;51.426;6.934;2023-03-24T05:23:48;11.70;99.90
35027;DHT22;60696;51.426;6.934;2023-03-24T05:26:13;11.60;99.90
35027;DHT22;60696;51.426;6.934;2023-03-24T05:28:39;11.60;99.90
35027;DHT22;60696;51.426;6.934;2023-03-24T05:31:05;11.60;99.90
35027;DHT22;60696;51.426;6.934;2023-03-24T05:33:31;11.50;99.90
35027;DHT22;60696;51.426;6.934;2023-03-24T05:35:56;11.30;99.90
35027;DHT22;60696;51.426;6.934;2023-03-24T05:38:22;11.20;99.90
35027;DHT22;60696;51.426;6.934;2023-03-24T05:40:47;11.10;99.90
35027;DHT22;60696;51.426;6.934;2023-03-24T05:43:13;11.00;99.90
35027;DHT22;60696;51.426;6.934;2023-03-24T05:45:39;10.90;99.90
35027;DHT22;60696;51.426;6.934;2023-03-24T05:48:06;10.90;99.90
35027;DHT22;60696;51.426;6.934;2023-03-24T05:50:32;10.80;99.90
35027;DHT22;60696;51.426;6.934;2023-03-24T05:52:58;10.90;99.90
35027;DHT22;60696;51.426;6.934;2023-03-24T05:55:23;10.90;99.90
35027;DHT22;60696;51.426;6.934;2023-03-24T05:57:49;10.90;99.90
35027;DHT22;60696;51.426;6.934;2023-03-24T06:00:15;10.90;99.90
35027;DHT22;60696;51.426;6.934;2023-03-24T06:02:43;10.80;99.90
35027;DHT22;60696;51.426;6.934;2023-03-24T06:05:10;10.80;99.90
35027;DHT22;60696;51.426;6.934;2023-03-24T06:07:37;10.80;99.90
35027;DHT22;60696;51.426;6.934;2023-03-24T06:10:04;10.80;99.90
35027;DHT22;60696;51.426;6.934;2023-03-24T06:12:32;10.90;99.90
35027;DHT22;60696;51.426;6.934;2023-03-24T06:14:58;10.80;99.90
35027;DHT22;60696;51.426;6.934;2023-03-24T06:17:25;10.90;99.90
35027;DHT22;60696;51.426;6.934;2023-03-24T06:19:53;11.00;99.90
35027;DHT22;60696;51.426;6.934;2023-03-24T06:22:27;11.10;99.90
35027;DHT22;60696;51.426;6.934;2023-03-24T06:24:53;11.00;99.90
35027;DHT22;60696;51.426;6.934;2023-03-24T06:27:21;10.90;99.90
35027;DHT22;60696;51.426;6.934;2023-03-24T06:29:49;10.70;99.90
35027;DHT22;60696;51.426;6.934;2023-03-24T06:32:18;10.70;99.90
35027;DHT22;60696;51.426;6.934;2023-03-24T06:34:44;10.70;99.90
35027;DHT22;60696;51.426;6.934;2023-03-24T06:37:11;10.70;99.90
35027;DHT22;60696;51.426;6.934;2023-03-24T06:39:36;10.70;99.90
35027;DHT22;60696;51.426;6.934;2023-03-24T06:42:03;10.70;99.90
35027;DHT22;60696;51.426;6.934;2023-03-24T06:44:29;10.90;99.90
35027;DHT22;60696;51.426;6.934;2023-03-24T06:46:55;11.00;99.90
35027;DHT22;60696;51.426;6.934;2023-03-24T06:49:21;10.90;99.90
35027;DHT22;60696;51.426;6.934;2023-03-24T06:51:46;10.80;99.90
35027;DHT22;60696;51.426;6.934;2023-03-24T06:54:12;10.90;99.90
35027;DHT22;60696;51.426;6.934;2023-03-24T06:56:38;11.00;99.90
35027;DHT22;60696;51.426;6.934;2023-03-24T06:59:03;11.00;99.90
35027;DHT22;60696;51.426;6.934;2023-03-24T07:01:29;11.10;99.90
35027;DHT22;60696;51.426;6.934;2023-03-24T07:03:55;11.20;99.90
35027;DHT22;60696;51.426;6.934;2023-03-24T07:06:21;11.30;99.90
35027;DHT22;60696;51.426;6.934;2023-03-24T07:08:48;11.20;99.90
35027;DHT22;60696;51.426;6.934;2023-03-24T07:11:14;11.30;99.90
35027;DHT22;60696;51.426;6.934;2023-03-24T07:13:40;11.20;99.90
35027;DHT22;60696;51.426;6.934;2023-03-24T07:16:06;11.10;99.90
35027;DHT22;60696;51.426;6.934;2023-03-24T07:18:32;11.20;99.90
35027;DHT22;60696;51.426;6.934;2023-03-24T07:20:57;11.30;99.90
35027;DHT22;60696;51.426;6.934;2023-03-24T07:23:23;11.30;99.90
35027;DHT22;60696;51.426;6.934;2023-03-24T07:25:50;11.40;99.90
35027;DHT22;60696;51.426;6.934;2023-03-24T07:28:16;11.40;99.90
35027;DHT22;60696;51.426;6.934;2023-03-24T07:30:41;11.50;99.90
35027;DHT22;60696;51.426;6.934;2023-03-24T07:33:08;11.70;99.90
35027;DHT22;60696;51.426;6.934;2023-03-24T07:35:37;11.80;99.90
35027;DHT22;60696;51.426;6.934;2023-03-24T07:38:03;12.50;99.90
35027;DHT22;60696;51.426;6.934;2023-03-24T07:40:29;13.60;99.90
35027;DHT22;60696;51.426;6.934;2023-03-24T07:42:58;14.50;99.90
35027;DHT22;60696;51.426;6.934;2023-03-24T07:45:25;15.10;99.90
35027;DHT22;60696;51.426;6.934;2023-03-24T07:47:50;15.70;99.90
35027;DHT22;60696;51.426;6.934;2023-03-24T07:50:16;16.50;99.90
35027;DHT22;60696;51.426;6.934;2023-03-24T07:52:46;17.00;99.90
35027;DHT22;60696;51.426;6.934;2023-03-24T07:55:12;17.40;99.90
35027;DHT22;60696;51.426;6.934;2023-03-24T07:57:56;18.40;99.90
35027;DHT22;60696;51.426;6.934;2023-03-24T08:00:22;18.70;99.90
35027;DHT22;60696;51.426;6.934;2023-03-24T08:02:52;18.30;99.00
35027;DHT22;60696;51.426;6.934;2023-03-24T08:05:19;18.00;99.90
35027;DHT22;60696;51.426;6.934;2023-03-24T08:07:48;18.40;99.90
35027;DHT22;60696;51.426;6.934;2023-03-24T08:10:25;18.60;99.40
35027;DHT22;60696;51.426;6.934;2023-03-24T08:12:51;18.60;99.00
35027;DHT22;60696;51.426;6.934;2023-03-24T08:15:17;18.40;99.90
35027;DHT22;60696;51.426;6.934;2023-03-24T08:17:43;19.00;99.90
35027;DHT22;60696;51.426;6.934;2023-03-24T08:20:10;19.70;99.00
35027;DHT22;60696;51.426;6.934;2023-03-24T08:22:43;20.00;96.20
35027;DHT22;60696;51.426;6.934;2023-03-24T08:25:11;19.00;97.70
35027;DHT22;60696;51.426;6.934;2023-03-24T08:27:38;18.80;99.40
35027;DHT22;60696;51.426;6.934;2023-03-24T08:30:06;18.30;99.90
35027;DHT22;60696;51.426;6.934;2023-03-24T08:32:33;18.80;99.90
35027;DHT22;60696;51.426;6.934;2023-03-24T08:34:59;19.40;98.70
35027;DHT22;60696;51.426;6.934;2023-03-24T08:37:24;18.10;99.20
35027;DHT22;60696;51.426;6.934;2023-03-24T08:39:50;17.00;99.90
35027;DHT22;60696;51.426;6.934;2023-03-24T08:42:16;16.30;99.90
35027;DHT22;60696;51.426;6.934;2023-03-24T08:44:41;15.90;99.90
35027;DHT22;60696;51.426;6.934;2023-03-24T08:47:07;16.60;99.90
35027;DHT22;60696;51.426;6.934;2023-03-24T08:49:32;17.70;99.90
35027;DHT22;60696;51.426;6.934;2023-03-24T08:51:58;18.30;99.90
35027;DHT22;60696;51.426;6.934;2023-03-24T08:54:24;18.90;98.80
35027;DHT22;60696;51.426;6.934;2023-03-24T08:56:50;19.80;95.90
35027;DHT22;60696;51.426;6.934;2023-03-24T08:59:16;20.60;93.00
35027;DHT22;60696;51.426;6.934;2023-03-24T09:01:42;20.80;93.00
35027;DHT22;60696;51.426;6.934;2023-03-24T09:04:07;20.30;91.30
35027;DHT22;60696;51.426;6.934;2023-03-24T09:06:33;20.20;92.40
35027;DHT22;60696;51.426;6.934;2023-03-24T09:08:59;20.10;90.90
35027;DHT22;60696;51.426;6.934;2023-03-24T09:11:24;20.90;88.40
35027;DHT22;60696;51.426;6.934;2023-03-24T09:13:50;21.10;86.80
35027;DHT22;60696;51.426;6.934;2023-03-24T09:16:16;20.30;90.90
35027;DHT22;60696;51.426;6.934;2023-03-24T09:18:42;20.40;90.70
35027;DHT22;60696;51.426;6.934;2023-03-24T09:21:08;20.00;90.20
35027;DHT22;60696;51.426;6.934;2023-03-24T09:23:34;20.50;91.30
35027;DHT22;60696;51.426;6.934;2023-03-24T09:26:01;20.00;88.30
35027;DHT22;60696;51.426;6.934;2023-03-24T09:28:28;19.00;92.80
35027;DHT22;60696;51.426;6.934;2023-03-24T09:31:01;18.90;95.90
35027;DHT22;60696;51.426;6.934;2023-03-24T09:33:28;19.50;95.00
35027;DHT22;60696;51.426;6.934;2023-03-24T09:35:57;19.70;93.80
35027;DHT22;60696;51.426;6.934;2023-03-24T09:38:23;20.10;92.50
35027;DHT22;60696;51.426;6.934;2023-03-24T09:40:59;20.60;94.70
35027;DHT22;60696;51.426;6.934;2023-03-24T09:43:36;21.90;85.60
35027;DHT22;60696;51.426;6.934;2023-03-24T09:46:10;20.90;86.60
35027;DHT22;60696;51.426;6.934;2023-03-24T09:48:46;20.50;87.00
35027;DHT22;60696;51.426;6.934;2023-03-24T09:51:14;19.90;88.10
35027;DHT22;60696;51.426;6.934;2023-03-24T09:54:10;19.80;90.00
35027;DHT22;60696;51.426;6.934;2023-03-24T09:56:41;19.20;91.60
35027;DHT22;60696;51.426;6.934;2023-03-24T09:59:24;18.20;92.20
35027;DHT22;60696;51.426;6.934;2023-03-24T10:01:54;17.30;96.10
35027;DHT22;60696;51.426;6.934;2023-03-24T10:04:25;16.60;99.30
35027;DHT22;60696;51.426;6.934;2023-03-24T10:07:37;16.30;99.90
35027;DHT22;60696;51.426;6.934;2023-03-24T10:10:00;16.30;99.90
35027;DHT22;60696;51.426;6.934;2023-03-24T10:12:35;15.70;99.90
35027;DHT22;60696;51.426;6.934;2023-03-24T10:20:46;14.40;99.90
35027;DHT22;60696;51.426;6.934;2023-03-24T10:23:38;14.40;99.90
35027;DHT22;60696;51.426;6.934;2023-03-24T10:26:26;14.40;99.90
35027;DHT22;60696;51.426;6.934;2023-03-24T10:29:08;14.40;99.90
35027;DHT22;60696;51.426;6.934;2023-03-24T10:31:36;16.00;99.90
35027;DHT22;60696;51.426;6.934;2023-03-24T10:34:03;17.40;99.90
35027;DHT22;60696;51.426;6.934;2023-03-24T10:36:29;18.20;98.00
35027;DHT22;60696;51.426;6.934;2023-03-24T10:38:55;17.00;97.70
35027;DHT22;60696;51.426;6.934;2023-03-24T10:41:26;17.80;99.90
35027;DHT22;60696;51.426;6.934;2023-03-24T10:43:55;19.80;94.70
35027;DHT22;60696;51.426;6.934;2023-03-24T10:46:24;21.40;90.30
35027;DHT22;60696;51.426;6.934;2023-03-24T10:51:47;21.60;78.40
35027;DHT22;60696;51.426;6.934;2023-03-24T10:54:20;21.60;75.40
35027;DHT22;60696;51.426;6.934;2023-03-24T10:56:50;20.90;76.90
35027;DHT22;60696;51.426;6.934;2023-03-24T10:59:26;21.10;74.30
35027;DHT22;60696;51.426;6.934;2023-03-24T11:02:28;21.80;74.60
35027;DHT22;60696;51.426;6.934;2023-03-24T11:05:01;20.00;70.90
35027;DHT22;60696;51.426;6.934;2023-03-24T11:07:56;19.00;80.00
35027;DHT22;60696;51.426;6.934;2023-03-24T11:10:24;17.60;88.50
35027;DHT22;60696;51.426;6.934;2023-03-24T11:15:33;16.40;96.00
35027;DHT22;60696;51.426;6.934;2023-03-24T11:18:14;16.50;98.50
35027;DHT22;60696;51.426;6.934;2023-03-24T11:20:46;16.80;98.40
35027;DHT22;60696;51.426;6.934;2023-03-24T11:23:20;17.20;97.50
35027;DHT22;60696;51.426;6.934;2023-03-24T11:26:01;17.00;96.60
35027;DHT22;60696;51.426;6.934;2023-03-24T11:28:28;16.30;97.70
35027;DHT22;60696;51.426;6.934;2023-03-24T11:31:05;15.70;99.20
35027;DHT22;60696;51.426;6.934;2023-03-24T11:33:34;15.20;99.90
35027;DHT22;60696;51.426;6.934;2023-03-24T11:39:03;16.40;99.90
35027;DHT22;60696;51.426;6.934;2023-03-24T11:41:35;16.40;99.90
35027;DHT22;60696;51.426;6.934;2023-03-24T11:44:22;16.80;99.90
35027;DHT22;60696;51.426;6.934;2023-03-24T11:47:01;16.60;99.90
35027;DHT22;60696;51.426;6.934;2023-03-24T11:49:30;16.70;99.90
35027;DHT22;60696;51.426;6.934;2023-03-24T11:51:57;16.40;99.90
35027;DHT22;60696;51.426;6.934;2023-03-24T11:54:28;16.10;97.50
35027;DHT22;60696;51.426;6.934;2023-03-24T11:56:59;15.70;98.40
35027;DHT22;60696;51.426;6.934;2023-03-24T11:59:49;15.50;99.90
35027;DHT22;60696;51.426;6.934;2023-03-24T12:05:18;15.30;99.90
35027;DHT22;60696;51.426;6.934;2023-03-24T12:13:08;16.50;99.90
35027;DHT22;60696;51.426;6.934;2023-03-24T12:21:36;16.60;99.90
35027;DHT22;60696;51.426;6.934;2023-03-24T12:27:00;16.00;99.60
35027;DHT22;60696;51.426;6.934;2023-03-24T12:29:59;16.30;99.90
35027;DHT22;60696;51.426;6.934;2023-03-24T12:32:44;16.20;99.90
35027;DHT22;60696;51.426;6.934;2023-03-24T12:35:33;16.40;99.90
35027;DHT22;60696;51.426;6.934;2023-03-24T12:45:49;15.30;99.90
35027;DHT22;60696;51.426;6.934;2023-03-24T12:51:39;15.10;99.90
35027;DHT22;60696;51.426;6.934;2023-03-24T12:56:59;16.00;99.90
35027;DHT22;60696;51.426;6.934;2023-03-24T12:59:46;15.50;99.50
35027;DHT22;60696;51.426;6.934;2023-03-24T13:02:41;15.20;99.90
35027;DHT22;60696;51.426;6.934;2023-03-24T13:05:31;14.90;99.90
35027;DHT22;60696;51.426;6.934;2023-03-24T13:08:04;14.60;99.90
35027;DHT22;60696;51.426;6.934;2023-03-24T13:10:35;14.60;99.90
35027;DHT22;60696;51.426;6.934;2023-03-24T13:13:22;14.50;99.90
35027;DHT22;60696;51.426;6.934;2023-03-24T13:15:59;14.40;99.90
35027;DHT22;60696;51.426;6.934;2023-03-24T13:18:49;14.50;99.90
35027;DHT22;60696;51.426;6.934;2023-03-24T13:21:17;14.50;99.90
35027;DHT22;60696;51.426;6.934;2023-03-24T13:23:59;14.50;99.90
35027;DHT22;60696;51.426;6.934;2023-03-24T13:26:56;14.40;99.90
35027;DHT22;60696;51.426;6.934;2023-03-24T13:32:13;14.50;99.90
35027;DHT22;60696;51.426;6.934;2023-03-24T13:37:22;14.30;99.90
35027;DHT22;60696;51.426;6.934;2023-03-24T13:39:59;14.20;99.90
35027;DHT22;60696;51.426;6.934;2023-03-24T13:42:34;14.00;99.90
35027;DHT22;60696;51.426;6.934;2023-03-24T13:45:04;14.00;99.90
35027;DHT22;60696;51.426;6.934;2023-03-24T13:47:48;13.90;99.90
35027;DHT22;60696;51.426;6.934;2023-03-24T13:50:15;13.90;99.90
35027;DHT22;60696;51.426;6.934;2023-03-24T13:52:47;13.60;99.90
35027;DHT22;60696;51.426;6.934;2023-03-24T13:55:22;13.50;99.90
35027;DHT22;60696;51.426;6.934;2023-03-24T13:57:59;13.30;99.90
35027;DHT22;60696;51.426;6.934;2023-03-24T14:00:29;13.70;99.90
35027;DHT22;60696;51.426;6.934;2023-03-24T14:02:55;14.10;99.90
35027;DHT22;60696;51.426;6.934;2023-03-24T14:05:59;14.30;99.90
35027;DHT22;60696;51.426;6.934;2023-03-24T14:19:35;14.80;99.90
35027;DHT22;60696;51.426;6.934;2023-03-24T14:22:25;14.90;99.90
35027;DHT22;60696;51.426;6.934;2023-03-24T14:25:00;14.80;99.90
35027;DHT22;60696;51.426;6.934;2023-03-24T14:27:34;14.50;99.90
35027;DHT22;60696;51.426;6.934;2023-03-24T14:32:36;13.60;99.90
35027;DHT22;60696;51.426;6.934;2023-03-24T14:35:03;13.60;99.90
35027;DHT22;60696;51.426;6.934;2023-03-24T14:37:29;13.40;99.90
35027;DHT22;60696;51.426;6.934;2023-03-24T14:39:56;13.30;99.90
35027;DHT22;60696;51.426;6.934;2023-03-24T14:45:02;13.40;99.90
35027;DHT22;60696;51.426;6.934;2023-03-24T14:47:37;13.30;99.90
35027;DHT22;60696;51.426;6.934;2023-03-24T14:50:20;13.20;99.90
35027;DHT22;60696;51.426;6.934;2023-03-24T14:52:52;13.30;99.90
35027;DHT22;60696;51.426;6.934;2023-03-24T14:55:20;13.20;99.90
35027;DHT22;60696;51.426;6.934;2023-03-24T14:58:01;13.60;99.90
35027;DHT22;60696;51.426;6.934;2023-03-24T15:00:42;13.90;99.90
35027;DHT22;60696;51.426;6.934;2023-03-24T15:05:43;13.90;99.90
35027;DHT22;60696;51.426;6.934;2023-03-24T15:08:22;13.90;99.90
35027;DHT22;60696;51.426;6.934;2023-03-24T15:11:05;13.80;99.90
35027;DHT22;60696;51.426;6.934;2023-03-24T15:13:44;13.70;99.90
35027;DHT22;60696;51.426;6.934;2023-03-24T15:18:48;13.50;99.90
35027;DHT22;60696;51.426;6.934;2023-03-24T15:21:21;13.30;99.90
35027;DHT22;60696;51.426;6.934;2023-03-24T15:23:47;13.20;99.90
35027;DHT22;60696;51.426;6.934;2023-03-24T15:26:14;13.10;99.90
35027;DHT22;60696;51.426;6.934;2023-03-24T15:28:40;13.20;99.90
35027;DHT22;60696;51.426;6.934;2023-03-24T15:31:06;13.30;99.90
35027;DHT22;60696;51.426;6.934;2023-03-24T15:33:40;13.30;99.90
35027;DHT22;60696;51.426;6.934;2023-03-24T15:36:19;13.40;99.90
35027;DHT22;60696;51.426;6.934;2023-03-24T15:38:47;13.40;99.90
35027;DHT22;60696;51.426;6.934;2023-03-24T15:41:17;13.40;99.90
35027;DHT22;60696;51.426;6.934;2023-03-24T15:43:46;13.40;99.90
35027;DHT22;60696;51.426;6.934;2023-03-24T15:46:29;13.30;99.90
35027;DHT22;60696;51.426;6.934;2023-03-24T15:48:55;13.20;99.90
35027;DHT22;60696;51.426;6.934;2023-03-24T15:51:48;13.10;99.90
35027;DHT22;60696;51.426;6.934;2023-03-24T15:54:29;13.00;99.90
35027;DHT22;60696;51.426;6.934;2023-03-24T15:57:00;12.80;99.90
35027;DHT22;60696;51.426;6.934;2023-03-24T15:59:34;12.40;99.90
35027;DHT22;60696;51.426;6.934;2023-03-24T16:02:03;11.30;99.90
35027;DHT22;60696;51.426;6.934;2023-03-24T16:04:31;10.60;99.90
35027;DHT22;60696;51.426;6.934;2023-03-24T16:06:57;10.40;99.90
35027;DHT22;60696;51.426;6.934;2023-03-24T16:09:23;10.20;99.90
35027;DHT22;60696;51.426;6.934;2023-03-24T16:11:51;10.10;99.90
35027;DHT22;60696;51.426;6.934;2023-03-24T16:14:24;10.10;99.90
35027;DHT22;60696;51.426;6.934;2023-03-24T16:16:58;10.30;99.90
35027;DHT22;60696;51.426;6.934;2023-03-24T16:19:24;10.30;99.90
35027;DHT22;60696;51.426;6.934;2023-03-24T16:21:50;10.50;99.90
35027;DHT22;60696;51.426;6.934;2023-03-24T16:24:16;10.50;99.90
35027;DHT22;60696;51.426;6.934;2023-03-24T16:26:42;10.60;99.90
35027;DHT22;60696;51.426;6.934;2023-03-24T16:31:43;10.80;99.90
35027;DHT22;60696;51.426;6.934;2023-03-24T16:34:13;10.80;99.90
35027;DHT22;60696;51.426;6.934;2023-03-24T16:36:39;10.90;99.90
35027;DHT22;60696;51.426;6.934;2023-03-24T16:39:15;11.00;99.90
35027;DHT22;60696;51.426;6.934;2023-03-24T16:41:44;11.00;99.90
35027;DHT22;60696;51.426;6.934;2023-03-24T16:44:13;11.00;99.90
35027;DHT22;60696;51.426;6.934;2023-03-24T16:46:40;11.10;99.90
35027;DHT22;60696;51.426;6.934;2023-03-24T16:49:07;11.20;99.90
35027;DHT22;60696;51.426;6.934;2023-03-24T16:51:35;11.20;99.90
35027;DHT22;60696;51.426;6.934;2023-03-24T16:54:01;11.10;99.90
35027;DHT22;60696;51.426;6.934;2023-03-24T16:56:28;11.10;99.90
35027;DHT22;60696;51.426;6.934;2023-03-24T16:58:54;11.00;99.90
35027;DHT22;60696;51.426;6.934;2023-03-24T17:01:31;10.80;99.90
35027;DHT22;60696;51.426;6.934;2023-03-24T17:04:03;10.80;99.90
35027;DHT22;60696;51.426;6.934;2023-03-24T17:06:31;10.80;99.90
35027;DHT22;60696;51.426;6.934;2023-03-24T17:08:57;10.80;99.90
35027;DHT22;60696;51.426;6.934;2023-03-24T17:11:33;10.80;99.90
35027;DHT22;60696;51.426;6.934;2023-03-24T17:13:59;10.80;99.90
35027;DHT22;60696;51.426;6.934;2023-03-24T17:16:34;10.80;99.90
35027;DHT22;60696;51.426;6.934;2023-03-24T17:19:04;10.70;99.90
35027;DHT22;60696;51.426;6.934;2023-03-24T17:21:32;10.60;99.90
35027;DHT22;60696;51.426;6.934;2023-03-24T17:23:59;10.50;99.90
35027;DHT22;60696;51.426;6.934;2023-03-24T17:26:25;10.50;99.90
35027;DHT22;60696;51.426;6.934;2023-03-24T17:28:51;10.40;99.90
35027;DHT22;60696;51.426;6.934;2023-03-24T17:31:16;10.40;99.90
35027;DHT22;60696;51.426;6.934;2023-03-24T17:33:42;10.30;99.90
35027;DHT22;60696;51.426;6.934;2023-03-24T17:36:17;10.30;99.90
35027;DHT22;60696;51.426;6.934;2023-03-24T17:38:43;10.20;99.90
35027;DHT22;60696;51.426;6.934;2023-03-24T17:41:12;10.20;99.90
35027;DHT22;60696;51.426;6.934;2023-03-24T17:43:37;10.20;99.90
35027;DHT22;60696;51.426;6.934;2023-03-24T17:46:03;10.20;99.90